sensor_id;sensor_type;location;lat;lon;timestamp;P1;durP1;ratioP1;P2;durP2;ratioP2
12681;SDS011;6405;59.208;18.216;2023-03-07T00:00:09;11.27;;;6.17;;
12681;SDS011;6405;59.208;18.216;2023-03-07T00:02:36;9.37;;;5.90;;
12681;SDS011;6405;59.208;18.216;2023-03-07T00:05:02;11.00;;;5.33;;
12681;SDS011;6405;59.208;18.216;2023-03-07T00:07:29;11.47;;;5.30;;
12681;SDS011;6405;59.208;18.216;2023-03-07T00:09:55;9.17;;;5.10;;
12681;SDS011;6405;59.208;18.216;2023-03-07T00:12:24;8.93;;;4.47;;
12681;SDS011;6405;59.208;18.216;2023-03-07T00:14:50;10.60;;;5.60;;
12681;SDS011;6405;59.208;18.216;2023-03-07T00:17:16;12.93;;;5.37;;
12681;SDS011;6405;59.208;18.216;2023-03-07T00:19:42;9.77;;;5.77;;
12681;SDS011;6405;59.208;18.216;2023-03-07T00:22:08;10.93;;;5.20;;
12681;SDS011;6405;59.208;18.216;2023-03-07T00:24:34;8.47;;;5.53;;
12681;SDS011;6405;59.208;18.216;2023-03-07T00:27:00;11.97;;;5.27;;
12681;SDS011;6405;59.208;18.216;2023-03-07T00:29:25;9.90;;;5.97;;
12681;SDS011;6405;59.208;18.216;2023-03-07T00:31:51;12.60;;;5.57;;
12681;SDS011;6405;59.208;18.216;2023-03-07T00:34:17;10.37;;;5.57;;
12681;SDS011;6405;59.208;18.216;2023-03-07T00:36:42;8.93;;;4.87;;
12681;SDS011;6405;59.208;18.216;2023-03-07T00:39:08;9.47;;;5.37;;
12681;SDS011;6405;59.208;18.216;2023-03-07T00:41:34;8.23;;;4.53;;
12681;SDS011;6405;59.208;18.216;2023-03-07T00:43:59;8.77;;;5.03;;
12681;SDS011;6405;59.208;18.216;2023-03-07T00:46:25;10.73;;;5.33;;
12681;SDS011;6405;59.208;18.216;2023-03-07T00:48:51;10.97;;;5.50;;
12681;SDS011;6405;59.208;18.216;2023-03-07T00:51:17;5.30;;;3.93;;
12681;SDS011;6405;59.208;18.216;2023-03-07T00:53:44;8.20;;;5.03;;
12681;SDS011;6405;59.208;18.216;2023-03-07T00:56:14;9.97;;;4.83;;
12681;SDS011;6405;59.208;18.216;2023-03-07T00:58:44;10.00;;;4.90;;
12681;SDS011;6405;59.208;18.216;2023-03-07T01:01:12;11.97;;;5.17;;
12681;SDS011;6405;59.208;18.216;2023-03-07T01:03:38;8.37;;;4.90;;
12681;SDS011;6405;59.208;18.216;2023-03-07T01:06:05;12.30;;;5.50;;
12681;SDS011;6405;59.208;18.216;2023-03-07T01:08:33;8.37;;;4.43;;
12681;SDS011;6405;59.208;18.216;2023-03-07T01:11:00;10.13;;;4.87;;
12681;SDS011;6405;59.208;18.216;2023-03-07T01:13:27;10.00;;;5.03;;
12681;SDS011;6405;59.208;18.216;2023-03-07T01:15:54;7.73;;;4.70;;
12681;SDS011;6405;59.208;18.216;2023-03-07T01:18:20;8.20;;;4.10;;
12681;SDS011;6405;59.208;18.216;2023-03-07T01:20:46;8.20;;;4.47;;
12681;SDS011;6405;59.208;18.216;2023-03-07T01:23:12;6.73;;;3.90;;
12681;SDS011;6405;59.208;18.216;2023-03-07T01:25:38;7.90;;;4.73;;
12681;SDS011;6405;59.208;18.216;2023-03-07T01:28:05;7.83;;;4.63;;
12681;SDS011;6405;59.208;18.216;2023-03-07T01:30:31;10.87;;;4.30;;
12681;SDS011;6405;59.208;18.216;2023-03-07T01:32:58;7.33;;;4.57;;
12681;SDS011;6405;59.208;18.216;2023-03-07T01:35:25;7.80;;;4.80;;
12681;SDS011;6405;59.208;18.216;2023-03-07T01:37:52;10.73;;;4.60;;
12681;SDS011;6405;59.208;18.216;2023-03-07T01:40:18;7.67;;;3.80;;
12681;SDS011;6405;59.208;18.216;2023-03-07T01:42:45;6.70;;;4.23;;
12681;SDS011;6405;59.208;18.216;2023-03-07T01:47:37;6.67;;;3.73;;
12681;SDS011;6405;59.208;18.216;2023-03-07T01:50:07;6.90;;;3.60;;
12681;SDS011;6405;59.208;18.216;2023-03-07T01:52:46;8.17;;;3.93;;
12681;SDS011;6405;59.208;18.216;2023-03-07T01:55:18;8.20;;;5.33;;
12681;SDS011;6405;59.208;18.216;2023-03-07T01:57:47;6.57;;;4.13;;
12681;SDS011;6405;59.208;18.216;2023-03-07T02:00:16;7.30;;;4.20;;
12681;SDS011;6405;59.208;18.216;2023-03-07T02:02:50;7.23;;;4.33;;
12681;SDS011;6405;59.208;18.216;2023-03-07T02:05:46;7.63;;;4.97;;
12681;SDS011;6405;59.208;18.216;2023-03-07T02:08:15;9.53;;;5.13;;
12681;SDS011;6405;59.208;18.216;2023-03-07T02:10:43;6.17;;;4.07;;
12681;SDS011;6405;59.208;18.216;2023-03-07T02:13:09;13.30;;;5.10;;
12681;SDS011;6405;59.208;18.216;2023-03-07T02:15:34;10.07;;;4.80;;
12681;SDS011;6405;59.208;18.216;2023-03-07T02:18:01;10.57;;;4.60;;
12681;SDS011;6405;59.208;18.216;2023-03-07T02:20:47;8.37;;;4.37;;
12681;SDS011;6405;59.208;18.216;2023-03-07T02:26:00;9.57;;;5.50;;
12681;SDS011;6405;59.208;18.216;2023-03-07T02:28:39;6.97;;;4.27;;
12681;SDS011;6405;59.208;18.216;2023-03-07T02:31:06;8.53;;;4.93;;
12681;SDS011;6405;59.208;18.216;2023-03-07T02:33:33;10.13;;;5.20;;
12681;SDS011;6405;59.208;18.216;2023-03-07T02:36:01;7.03;;;4.20;;
12681;SDS011;6405;59.208;18.216;2023-03-07T02:38:29;7.53;;;4.37;;
12681;SDS011;6405;59.208;18.216;2023-03-07T02:41:00;8.67;;;5.13;;
12681;SDS011;6405;59.208;18.216;2023-03-07T02:43:26;6.77;;;4.90;;
12681;SDS011;6405;59.208;18.216;2023-03-07T02:45:52;5.97;;;4.23;;
12681;SDS011;6405;59.208;18.216;2023-03-07T02:48:18;8.97;;;4.27;;
12681;SDS011;6405;59.208;18.216;2023-03-07T02:50:44;6.40;;;4.00;;
12681;SDS011;6405;59.208;18.216;2023-03-07T02:53:12;8.40;;;4.30;;
12681;SDS011;6405;59.208;18.216;2023-03-07T02:55:37;7.67;;;4.03;;
12681;SDS011;6405;59.208;18.216;2023-03-07T02:58:03;8.67;;;4.20;;
12681;SDS011;6405;59.208;18.216;2023-03-07T03:00:29;5.90;;;3.17;;
12681;SDS011;6405;59.208;18.216;2023-03-07T03:02:54;8.30;;;3.40;;
12681;SDS011;6405;59.208;18.216;2023-03-07T03:05:20;6.20;;;3.40;;
12681;SDS011;6405;59.208;18.216;2023-03-07T03:07:46;9.33;;;3.70;;
12681;SDS011;6405;59.208;18.216;2023-03-07T03:10:12;6.93;;;3.70;;
12681;SDS011;6405;59.208;18.216;2023-03-07T03:12:38;5.80;;;3.33;;
12681;SDS011;6405;59.208;18.216;2023-03-07T03:15:03;4.27;;;2.63;;
12681;SDS011;6405;59.208;18.216;2023-03-07T03:17:30;6.23;;;2.87;;
12681;SDS011;6405;59.208;18.216;2023-03-07T03:19:55;8.60;;;2.97;;
12681;SDS011;6405;59.208;18.216;2023-03-07T03:22:21;6.70;;;2.90;;
12681;SDS011;6405;59.208;18.216;2023-03-07T03:24:46;4.87;;;3.17;;
12681;SDS011;6405;59.208;18.216;2023-03-07T03:27:12;4.73;;;3.20;;
12681;SDS011;6405;59.208;18.216;2023-03-07T03:29:38;4.90;;;2.47;;
12681;SDS011;6405;59.208;18.216;2023-03-07T03:32:03;4.33;;;2.50;;
12681;SDS011;6405;59.208;18.216;2023-03-07T03:34:29;5.90;;;2.83;;
12681;SDS011;6405;59.208;18.216;2023-03-07T03:36:55;4.47;;;2.90;;
12681;SDS011;6405;59.208;18.216;2023-03-07T03:39:21;5.03;;;2.53;;
12681;SDS011;6405;59.208;18.216;2023-03-07T03:41:46;5.30;;;3.00;;
12681;SDS011;6405;59.208;18.216;2023-03-07T03:44:12;6.10;;;3.23;;
12681;SDS011;6405;59.208;18.216;2023-03-07T03:46:38;3.63;;;2.37;;
12681;SDS011;6405;59.208;18.216;2023-03-07T03:49:03;6.20;;;3.43;;
12681;SDS011;6405;59.208;18.216;2023-03-07T03:51:29;5.40;;;2.63;;
12681;SDS011;6405;59.208;18.216;2023-03-07T03:53:55;7.33;;;3.13;;
12681;SDS011;6405;59.208;18.216;2023-03-07T03:56:23;5.20;;;3.00;;
12681;SDS011;6405;59.208;18.216;2023-03-07T03:58:50;8.27;;;3.40;;
12681;SDS011;6405;59.208;18.216;2023-03-07T04:01:18;6.13;;;3.43;;
12681;SDS011;6405;59.208;18.216;2023-03-07T04:03:47;4.20;;;2.60;;
12681;SDS011;6405;59.208;18.216;2023-03-07T04:06:15;5.80;;;3.40;;
12681;SDS011;6405;59.208;18.216;2023-03-07T04:08:46;6.37;;;2.63;;
12681;SDS011;6405;59.208;18.216;2023-03-07T04:11:12;4.37;;;2.17;;
12681;SDS011;6405;59.208;18.216;2023-03-07T04:13:38;5.40;;;2.57;;
12681;SDS011;6405;59.208;18.216;2023-03-07T04:16:04;3.87;;;2.17;;
12681;SDS011;6405;59.208;18.216;2023-03-07T04:18:30;4.43;;;2.63;;
12681;SDS011;6405;59.208;18.216;2023-03-07T04:20:56;5.43;;;2.60;;
12681;SDS011;6405;59.208;18.216;2023-03-07T04:23:22;5.53;;;2.37;;
12681;SDS011;6405;59.208;18.216;2023-03-07T04:25:50;6.00;;;2.63;;
12681;SDS011;6405;59.208;18.216;2023-03-07T04:28:19;3.10;;;2.20;;
12681;SDS011;6405;59.208;18.216;2023-03-07T04:30:46;5.50;;;2.30;;
12681;SDS011;6405;59.208;18.216;2023-03-07T04:33:13;4.67;;;2.43;;
12681;SDS011;6405;59.208;18.216;2023-03-07T04:35:40;3.37;;;2.23;;
12681;SDS011;6405;59.208;18.216;2023-03-07T04:38:07;3.33;;;2.00;;
12681;SDS011;6405;59.208;18.216;2023-03-07T04:40:33;3.97;;;2.27;;
12681;SDS011;6405;59.208;18.216;2023-03-07T04:42:58;4.07;;;2.33;;
12681;SDS011;6405;59.208;18.216;2023-03-07T04:45:24;4.57;;;2.50;;
12681;SDS011;6405;59.208;18.216;2023-03-07T04:47:50;4.50;;;2.03;;
12681;SDS011;6405;59.208;18.216;2023-03-07T04:50:16;5.37;;;2.27;;
12681;SDS011;6405;59.208;18.216;2023-03-07T04:52:43;3.40;;;2.00;;
12681;SDS011;6405;59.208;18.216;2023-03-07T04:55:09;3.63;;;2.47;;
12681;SDS011;6405;59.208;18.216;2023-03-07T04:57:35;4.60;;;1.70;;
12681;SDS011;6405;59.208;18.216;2023-03-07T05:00:01;6.60;;;2.60;;
12681;SDS011;6405;59.208;18.216;2023-03-07T05:02:27;4.73;;;2.57;;
12681;SDS011;6405;59.208;18.216;2023-03-07T05:04:53;2.17;;;1.67;;
12681;SDS011;6405;59.208;18.216;2023-03-07T05:07:18;5.57;;;1.90;;
12681;SDS011;6405;59.208;18.216;2023-03-07T05:09:44;4.67;;;2.27;;
12681;SDS011;6405;59.208;18.216;2023-03-07T05:12:10;4.23;;;1.60;;
12681;SDS011;6405;59.208;18.216;2023-03-07T05:14:35;4.93;;;2.03;;
12681;SDS011;6405;59.208;18.216;2023-03-07T05:17:01;6.40;;;2.67;;
12681;SDS011;6405;59.208;18.216;2023-03-07T05:19:27;5.77;;;2.37;;
12681;SDS011;6405;59.208;18.216;2023-03-07T05:21:53;4.97;;;1.93;;
12681;SDS011;6405;59.208;18.216;2023-03-07T05:24:19;5.93;;;2.53;;
12681;SDS011;6405;59.208;18.216;2023-03-07T05:26:44;4.73;;;2.13;;
12681;SDS011;6405;59.208;18.216;2023-03-07T05:29:10;4.63;;;2.17;;
12681;SDS011;6405;59.208;18.216;2023-03-07T05:31:35;4.33;;;2.10;;
12681;SDS011;6405;59.208;18.216;2023-03-07T05:34:01;4.70;;;2.13;;
12681;SDS011;6405;59.208;18.216;2023-03-07T05:36:27;2.80;;;1.80;;
12681;SDS011;6405;59.208;18.216;2023-03-07T05:38:52;3.60;;;2.10;;
12681;SDS011;6405;59.208;18.216;2023-03-07T05:41:20;5.13;;;2.00;;
12681;SDS011;6405;59.208;18.216;2023-03-07T05:43:46;12.30;;;3.03;;
12681;SDS011;6405;59.208;18.216;2023-03-07T05:46:12;6.20;;;2.40;;
12681;SDS011;6405;59.208;18.216;2023-03-07T05:48:38;4.50;;;2.00;;
12681;SDS011;6405;59.208;18.216;2023-03-07T05:51:04;4.37;;;2.47;;
12681;SDS011;6405;59.208;18.216;2023-03-07T05:53:30;4.33;;;2.13;;
12681;SDS011;6405;59.208;18.216;2023-03-07T05:55:56;3.33;;;2.20;;
12681;SDS011;6405;59.208;18.216;2023-03-07T05:58:21;5.20;;;2.30;;
12681;SDS011;6405;59.208;18.216;2023-03-07T06:00:47;5.40;;;2.27;;
12681;SDS011;6405;59.208;18.216;2023-03-07T06:03:13;6.27;;;2.40;;
12681;SDS011;6405;59.208;18.216;2023-03-07T06:05:39;3.67;;;1.90;;
12681;SDS011;6405;59.208;18.216;2023-03-07T06:08:04;4.37;;;2.13;;
12681;SDS011;6405;59.208;18.216;2023-03-07T06:10:31;2.80;;;1.50;;
12681;SDS011;6405;59.208;18.216;2023-03-07T06:12:58;6.57;;;2.93;;
12681;SDS011;6405;59.208;18.216;2023-03-07T06:15:23;6.80;;;2.23;;
12681;SDS011;6405;59.208;18.216;2023-03-07T06:17:49;4.50;;;2.30;;
12681;SDS011;6405;59.208;18.216;2023-03-07T06:20:16;3.43;;;1.97;;
12681;SDS011;6405;59.208;18.216;2023-03-07T06:22:45;2.27;;;2.07;;
12681;SDS011;6405;59.208;18.216;2023-03-07T06:25:10;5.77;;;2.43;;
12681;SDS011;6405;59.208;18.216;2023-03-07T06:27:37;9.50;;;3.90;;
12681;SDS011;6405;59.208;18.216;2023-03-07T06:30:04;9.27;;;4.23;;
12681;SDS011;6405;59.208;18.216;2023-03-07T06:32:31;10.03;;;4.37;;
12681;SDS011;6405;59.208;18.216;2023-03-07T06:34:57;7.63;;;3.90;;
12681;SDS011;6405;59.208;18.216;2023-03-07T06:37:23;15.70;;;6.13;;
12681;SDS011;6405;59.208;18.216;2023-03-07T06:39:49;13.43;;;5.77;;
12681;SDS011;6405;59.208;18.216;2023-03-07T06:42:15;13.20;;;4.67;;
12681;SDS011;6405;59.208;18.216;2023-03-07T06:44:40;9.83;;;5.10;;
12681;SDS011;6405;59.208;18.216;2023-03-07T06:47:06;10.53;;;4.93;;
12681;SDS011;6405;59.208;18.216;2023-03-07T06:49:32;11.93;;;4.50;;
12681;SDS011;6405;59.208;18.216;2023-03-07T06:51:57;10.23;;;5.10;;
12681;SDS011;6405;59.208;18.216;2023-03-07T06:54:24;9.30;;;4.23;;
12681;SDS011;6405;59.208;18.216;2023-03-07T06:56:49;9.00;;;4.43;;
12681;SDS011;6405;59.208;18.216;2023-03-07T06:59:15;7.17;;;3.80;;
12681;SDS011;6405;59.208;18.216;2023-03-07T07:01:41;8.03;;;4.50;;
12681;SDS011;6405;59.208;18.216;2023-03-07T07:04:08;10.30;;;4.90;;
12681;SDS011;6405;59.208;18.216;2023-03-07T07:06:34;11.17;;;4.37;;
12681;SDS011;6405;59.208;18.216;2023-03-07T07:09:00;8.60;;;4.70;;
12681;SDS011;6405;59.208;18.216;2023-03-07T07:11:26;8.73;;;4.33;;
12681;SDS011;6405;59.208;18.216;2023-03-07T07:13:52;12.13;;;5.23;;
12681;SDS011;6405;59.208;18.216;2023-03-07T07:16:18;9.60;;;5.83;;
12681;SDS011;6405;59.208;18.216;2023-03-07T07:18:43;19.40;;;8.07;;
12681;SDS011;6405;59.208;18.216;2023-03-07T07:21:10;20.50;;;8.43;;
12681;SDS011;6405;59.208;18.216;2023-03-07T07:23:35;34.03;;;9.60;;
12681;SDS011;6405;59.208;18.216;2023-03-07T07:26:01;26.73;;;8.93;;
12681;SDS011;6405;59.208;18.216;2023-03-07T07:28:27;32.07;;;11.00;;
12681;SDS011;6405;59.208;18.216;2023-03-07T07:30:53;29.03;;;10.30;;
12681;SDS011;6405;59.208;18.216;2023-03-07T07:33:18;22.40;;;8.57;;
12681;SDS011;6405;59.208;18.216;2023-03-07T07:35:45;17.47;;;5.53;;
12681;SDS011;6405;59.208;18.216;2023-03-07T07:38:11;18.30;;;7.00;;
12681;SDS011;6405;59.208;18.216;2023-03-07T07:40:38;21.53;;;7.00;;
12681;SDS011;6405;59.208;18.216;2023-03-07T07:43:04;26.23;;;8.00;;
12681;SDS011;6405;59.208;18.216;2023-03-07T07:45:30;24.47;;;8.40;;
12681;SDS011;6405;59.208;18.216;2023-03-07T07:47:55;19.30;;;7.40;;
12681;SDS011;6405;59.208;18.216;2023-03-07T07:50:21;9.17;;;4.17;;
12681;SDS011;6405;59.208;18.216;2023-03-07T07:52:47;6.83;;;3.60;;
12681;SDS011;6405;59.208;18.216;2023-03-07T07:55:14;7.60;;;3.70;;
12681;SDS011;6405;59.208;18.216;2023-03-07T07:57:40;6.23;;;3.33;;
12681;SDS011;6405;59.208;18.216;2023-03-07T08:00:07;4.57;;;1.97;;
12681;SDS011;6405;59.208;18.216;2023-03-07T08:02:34;3.87;;;2.00;;
12681;SDS011;6405;59.208;18.216;2023-03-07T08:05:00;2.77;;;1.13;;
12681;SDS011;6405;59.208;18.216;2023-03-07T08:07:26;3.20;;;1.30;;
12681;SDS011;6405;59.208;18.216;2023-03-07T08:09:52;2.13;;;1.03;;
12681;SDS011;6405;59.208;18.216;2023-03-07T08:12:18;3.93;;;1.40;;
12681;SDS011;6405;59.208;18.216;2023-03-07T08:14:43;1.20;;;1.10;;
12681;SDS011;6405;59.208;18.216;2023-03-07T08:17:09;2.90;;;0.87;;
12681;SDS011;6405;59.208;18.216;2023-03-07T08:19:35;2.83;;;1.10;;
12681;SDS011;6405;59.208;18.216;2023-03-07T08:22:00;1.30;;;0.90;;
12681;SDS011;6405;59.208;18.216;2023-03-07T08:24:27;1.83;;;1.30;;
12681;SDS011;6405;59.208;18.216;2023-03-07T08:26:52;1.30;;;1.20;;
12681;SDS011;6405;59.208;18.216;2023-03-07T08:29:18;3.10;;;1.33;;
12681;SDS011;6405;59.208;18.216;2023-03-07T08:31:44;0.93;;;0.87;;
12681;SDS011;6405;59.208;18.216;2023-03-07T08:34:10;1.63;;;0.70;;
12681;SDS011;6405;59.208;18.216;2023-03-07T08:36:36;1.30;;;1.00;;
12681;SDS011;6405;59.208;18.216;2023-03-07T08:39:03;1.13;;;0.80;;
12681;SDS011;6405;59.208;18.216;2023-03-07T08:41:29;1.50;;;0.60;;
12681;SDS011;6405;59.208;18.216;2023-03-07T08:43:54;1.87;;;0.70;;
12681;SDS011;6405;59.208;18.216;2023-03-07T08:46:20;1.10;;;0.70;;
12681;SDS011;6405;59.208;18.216;2023-03-07T08:48:45;0.60;;;0.33;;
12681;SDS011;6405;59.208;18.216;2023-03-07T08:51:12;0.53;;;0.40;;
12681;SDS011;6405;59.208;18.216;2023-03-07T08:53:39;0.80;;;0.60;;
12681;SDS011;6405;59.208;18.216;2023-03-07T08:56:10;1.93;;;0.33;;
12681;SDS011;6405;59.208;18.216;2023-03-07T08:58:37;1.70;;;0.60;;
12681;SDS011;6405;59.208;18.216;2023-03-07T09:01:04;1.07;;;0.57;;
12681;SDS011;6405;59.208;18.216;2023-03-07T09:03:30;0.70;;;0.70;;
12681;SDS011;6405;59.208;18.216;2023-03-07T09:05:57;0.33;;;0.30;;
12681;SDS011;6405;59.208;18.216;2023-03-07T09:08:22;1.73;;;0.50;;
12681;SDS011;6405;59.208;18.216;2023-03-07T09:10:48;0.30;;;0.30;;
12681;SDS011;6405;59.208;18.216;2023-03-07T09:13:14;0.37;;;0.20;;
12681;SDS011;6405;59.208;18.216;2023-03-07T09:15:42;0.63;;;0.47;;
12681;SDS011;6405;59.208;18.216;2023-03-07T09:18:07;0.80;;;0.50;;
12681;SDS011;6405;59.208;18.216;2023-03-07T09:20:33;0.40;;;0.40;;
12681;SDS011;6405;59.208;18.216;2023-03-07T09:22:59;0.40;;;0.20;;
12681;SDS011;6405;59.208;18.216;2023-03-07T09:25:24;0.50;;;0.40;;
12681;SDS011;6405;59.208;18.216;2023-03-07T09:27:53;0.20;;;0.20;;
12681;SDS011;6405;59.208;18.216;2023-03-07T09:30:18;0.30;;;0.30;;
12681;SDS011;6405;59.208;18.216;2023-03-07T09:32:44;1.03;;;0.20;;
12681;SDS011;6405;59.208;18.216;2023-03-07T09:35:10;0.43;;;0.20;;
12681;SDS011;6405;59.208;18.216;2023-03-07T09:37:36;0.80;;;0.77;;
12681;SDS011;6405;59.208;18.216;2023-03-07T09:40:02;1.13;;;0.20;;
12681;SDS011;6405;59.208;18.216;2023-03-07T09:42:41;0.37;;;0.23;;
12681;SDS011;6405;59.208;18.216;2023-03-07T09:45:13;1.20;;;1.00;;
12681;SDS011;6405;59.208;18.216;2023-03-07T09:50:44;0.40;;;0.40;;
12681;SDS011;6405;59.208;18.216;2023-03-07T09:55:56;1.67;;;0.50;;
12681;SDS011;6405;59.208;18.216;2023-03-07T09:58:23;0.63;;;0.40;;
12681;SDS011;6405;59.208;18.216;2023-03-07T10:00:53;0.40;;;0.30;;
12681;SDS011;6405;59.208;18.216;2023-03-07T10:03:31;1.37;;;0.50;;
12681;SDS011;6405;59.208;18.216;2023-03-07T10:06:02;0.47;;;0.20;;
12681;SDS011;6405;59.208;18.216;2023-03-07T10:08:36;0.47;;;0.30;;
12681;SDS011;6405;59.208;18.216;2023-03-07T10:22:24;0.20;;;0.20;;
12681;SDS011;6405;59.208;18.216;2023-03-07T10:25:01;1.40;;;0.43;;
12681;SDS011;6405;59.208;18.216;2023-03-07T10:27:38;0.30;;;0.27;;
12681;SDS011;6405;59.208;18.216;2023-03-07T10:30:11;1.40;;;0.70;;
12681;SDS011;6405;59.208;18.216;2023-03-07T10:32:47;2.37;;;0.37;;
12681;SDS011;6405;59.208;18.216;2023-03-07T10:35:19;1.00;;;0.80;;
12681;SDS011;6405;59.208;18.216;2023-03-07T10:43:27;0.60;;;0.40;;
12681;SDS011;6405;59.208;18.216;2023-03-07T10:46:00;0.80;;;0.43;;
12681;SDS011;6405;59.208;18.216;2023-03-07T10:48:38;0.77;;;0.50;;
12681;SDS011;6405;59.208;18.216;2023-03-07T10:51:54;1.73;;;0.50;;
12681;SDS011;6405;59.208;18.216;2023-03-07T10:54:07;0.33;;;0.33;;
12681;SDS011;6405;59.208;18.216;2023-03-07T10:56:38;1.07;;;0.80;;
12681;SDS011;6405;59.208;18.216;2023-03-07T10:59:05;2.33;;;1.07;;
12681;SDS011;6405;59.208;18.216;2023-03-07T11:01:34;2.17;;;1.30;;
12681;SDS011;6405;59.208;18.216;2023-03-07T11:09:26;0.93;;;0.70;;
12681;SDS011;6405;59.208;18.216;2023-03-07T11:14:30;0.57;;;0.30;;
12681;SDS011;6405;59.208;18.216;2023-03-07T11:17:23;0.63;;;0.40;;
12681;SDS011;6405;59.208;18.216;2023-03-07T11:19:52;0.60;;;0.43;;
12681;SDS011;6405;59.208;18.216;2023-03-07T11:22:28;1.10;;;0.90;;
12681;SDS011;6405;59.208;18.216;2023-03-07T11:25:01;0.93;;;0.60;;
12681;SDS011;6405;59.208;18.216;2023-03-07T11:32:49;0.77;;;0.70;;
12681;SDS011;6405;59.208;18.216;2023-03-07T11:36:10;0.83;;;0.40;;
12681;SDS011;6405;59.208;18.216;2023-03-07T11:38:18;0.50;;;0.50;;
12681;SDS011;6405;59.208;18.216;2023-03-07T11:40:50;0.60;;;0.30;;
12681;SDS011;6405;59.208;18.216;2023-03-07T11:43:25;0.43;;;0.40;;
12681;SDS011;6405;59.208;18.216;2023-03-07T11:46:09;0.57;;;0.33;;
12681;SDS011;6405;59.208;18.216;2023-03-07T11:48:50;1.67;;;0.50;;
12681;SDS011;6405;59.208;18.216;2023-03-07T11:51:52;0.73;;;0.40;;
12681;SDS011;6405;59.208;18.216;2023-03-07T11:57:10;1.60;;;0.90;;
12681;SDS011;6405;59.208;18.216;2023-03-07T11:59:53;0.40;;;0.40;;
12681;SDS011;6405;59.208;18.216;2023-03-07T12:10:16;1.10;;;0.50;;
12681;SDS011;6405;59.208;18.216;2023-03-07T12:15:44;0.57;;;0.40;;
12681;SDS011;6405;59.208;18.216;2023-03-07T12:18:29;0.40;;;0.40;;
12681;SDS011;6405;59.208;18.216;2023-03-07T12:24:22;1.20;;;0.40;;
12681;SDS011;6405;59.208;18.216;2023-03-07T12:29:31;0.43;;;0.40;;
12681;SDS011;6405;59.208;18.216;2023-03-07T12:32:12;0.50;;;0.33;;
12681;SDS011;6405;59.208;18.216;2023-03-07T12:34:45;0.50;;;0.30;;
12681;SDS011;6405;59.208;18.216;2023-03-07T12:37:20;0.87;;;0.37;;
12681;SDS011;6405;59.208;18.216;2023-03-07T12:40:09;0.70;;;0.30;;
12681;SDS011;6405;59.208;18.216;2023-03-07T12:45:23;0.43;;;0.37;;
12681;SDS011;6405;59.208;18.216;2023-03-07T12:48:03;2.30;;;0.50;;
12681;SDS011;6405;59.208;18.216;2023-03-07T12:50:59;0.40;;;0.40;;
12681;SDS011;6405;59.208;18.216;2023-03-07T12:53:55;0.40;;;0.30;;
12681;SDS011;6405;59.208;18.216;2023-03-07T12:56:44;0.93;;;0.40;;
12681;SDS011;6405;59.208;18.216;2023-03-07T12:59:17;1.87;;;0.70;;
12681;SDS011;6405;59.208;18.216;2023-03-07T13:01:54;0.53;;;0.50;;
12681;SDS011;6405;59.208;18.216;2023-03-07T13:07:16;0.40;;;0.40;;
12681;SDS011;6405;59.208;18.216;2023-03-07T13:09:50;3.27;;;0.80;;
12681;SDS011;6405;59.208;18.216;2023-03-07T13:12:23;1.10;;;0.70;;
12681;SDS011;6405;59.208;18.216;2023-03-07T13:15:02;0.83;;;0.80;;
12681;SDS011;6405;59.208;18.216;2023-03-07T13:19:58;0.73;;;0.30;;
12681;SDS011;6405;59.208;18.216;2023-03-07T13:27:52;0.77;;;0.60;;
12681;SDS011;6405;59.208;18.216;2023-03-07T13:30:22;0.50;;;0.40;;
12681;SDS011;6405;59.208;18.216;2023-03-07T13:56:02;1.13;;;0.47;;
12681;SDS011;6405;59.208;18.216;2023-03-07T13:58:46;0.93;;;0.50;;
12681;SDS011;6405;59.208;18.216;2023-03-07T14:01:23;1.50;;;0.60;;
12681;SDS011;6405;59.208;18.216;2023-03-07T14:06:44;1.57;;;0.50;;
12681;SDS011;6405;59.208;18.216;2023-03-07T14:09:13;1.00;;;0.53;;
12681;SDS011;6405;59.208;18.216;2023-03-07T14:20:08;1.57;;;0.60;;
12681;SDS011;6405;59.208;18.216;2023-03-07T14:25:34;0.83;;;0.60;;
12681;SDS011;6405;59.208;18.216;2023-03-07T14:28:03;0.50;;;0.40;;
12681;SDS011;6405;59.208;18.216;2023-03-07T14:31:01;0.97;;;0.53;;
12681;SDS011;6405;59.208;18.216;2023-03-07T14:33:31;0.90;;;0.53;;
12681;SDS011;6405;59.208;18.216;2023-03-07T14:36:02;1.40;;;0.87;;
12681;SDS011;6405;59.208;18.216;2023-03-07T14:38:39;1.00;;;0.50;;
12681;SDS011;6405;59.208;18.216;2023-03-07T14:47:05;3.87;;;0.93;;
12681;SDS011;6405;59.208;18.216;2023-03-07T14:52:29;0.87;;;0.60;;
12681;SDS011;6405;59.208;18.216;2023-03-07T14:54:55;1.30;;;0.70;;
12681;SDS011;6405;59.208;18.216;2023-03-07T14:57:38;2.20;;;0.70;;
12681;SDS011;6405;59.208;18.216;2023-03-07T15:00:20;1.40;;;0.57;;
12681;SDS011;6405;59.208;18.216;2023-03-07T15:02:55;0.77;;;0.60;;
12681;SDS011;6405;59.208;18.216;2023-03-07T15:05:35;1.10;;;0.70;;
12681;SDS011;6405;59.208;18.216;2023-03-07T15:08:02;2.23;;;1.10;;
12681;SDS011;6405;59.208;18.216;2023-03-07T15:10:33;2.63;;;0.90;;
12681;SDS011;6405;59.208;18.216;2023-03-07T15:13:05;2.60;;;0.80;;
12681;SDS011;6405;59.208;18.216;2023-03-07T15:15:44;1.77;;;1.27;;
12681;SDS011;6405;59.208;18.216;2023-03-07T15:18:23;4.20;;;1.30;;
12681;SDS011;6405;59.208;18.216;2023-03-07T15:20:56;4.20;;;1.00;;
12681;SDS011;6405;59.208;18.216;2023-03-07T15:23:24;2.03;;;0.80;;
12681;SDS011;6405;59.208;18.216;2023-03-07T15:26:03;1.20;;;0.80;;
12681;SDS011;6405;59.208;18.216;2023-03-07T15:28:35;2.57;;;1.20;;
12681;SDS011;6405;59.208;18.216;2023-03-07T15:31:04;2.10;;;1.10;;
12681;SDS011;6405;59.208;18.216;2023-03-07T15:33:32;1.70;;;1.20;;
12681;SDS011;6405;59.208;18.216;2023-03-07T15:36:07;5.00;;;1.90;;
12681;SDS011;6405;59.208;18.216;2023-03-07T15:38:33;2.03;;;0.80;;
12681;SDS011;6405;59.208;18.216;2023-03-07T15:40:59;1.63;;;0.90;;
12681;SDS011;6405;59.208;18.216;2023-03-07T15:43:26;2.13;;;1.10;;
12681;SDS011;6405;59.208;18.216;2023-03-07T15:46:14;1.90;;;0.90;;
12681;SDS011;6405;59.208;18.216;2023-03-07T15:48:51;1.83;;;0.90;;
12681;SDS011;6405;59.208;18.216;2023-03-07T15:51:21;1.53;;;0.90;;
12681;SDS011;6405;59.208;18.216;2023-03-07T15:53:55;1.93;;;0.70;;
12681;SDS011;6405;59.208;18.216;2023-03-07T15:56:26;1.10;;;0.70;;
12681;SDS011;6405;59.208;18.216;2023-03-07T15:59:25;2.17;;;1.10;;
12681;SDS011;6405;59.208;18.216;2023-03-07T16:01:55;1.47;;;0.90;;
12681;SDS011;6405;59.208;18.216;2023-03-07T16:04:29;1.17;;;1.00;;
12681;SDS011;6405;59.208;18.216;2023-03-07T16:06:55;5.77;;;1.17;;
12681;SDS011;6405;59.208;18.216;2023-03-07T16:09:21;2.93;;;0.87;;
12681;SDS011;6405;59.208;18.216;2023-03-07T16:11:47;2.00;;;0.70;;
12681;SDS011;6405;59.208;18.216;2023-03-07T16:14:23;2.27;;;0.80;;
12681;SDS011;6405;59.208;18.216;2023-03-07T16:17:19;1.53;;;0.80;;
12681;SDS011;6405;59.208;18.216;2023-03-07T16:19:48;2.40;;;0.80;;
12681;SDS011;6405;59.208;18.216;2023-03-07T16:22:14;2.60;;;0.80;;
12681;SDS011;6405;59.208;18.216;2023-03-07T16:24:41;0.90;;;0.60;;
12681;SDS011;6405;59.208;18.216;2023-03-07T16:27:20;1.30;;;1.00;;
12681;SDS011;6405;59.208;18.216;2023-03-07T16:29:47;2.90;;;0.90;;
12681;SDS011;6405;59.208;18.216;2023-03-07T16:32:16;1.23;;;0.50;;
12681;SDS011;6405;59.208;18.216;2023-03-07T16:34:44;2.03;;;0.60;;
12681;SDS011;6405;59.208;18.216;2023-03-07T16:37:10;1.43;;;0.60;;
12681;SDS011;6405;59.208;18.216;2023-03-07T16:39:37;4.00;;;0.53;;
12681;SDS011;6405;59.208;18.216;2023-03-07T16:42:03;0.93;;;0.60;;
12681;SDS011;6405;59.208;18.216;2023-03-07T16:44:31;0.30;;;0.30;;
12681;SDS011;6405;59.208;18.216;2023-03-07T16:47:04;3.60;;;0.67;;
12681;SDS011;6405;59.208;18.216;2023-03-07T16:49:33;0.97;;;0.70;;
12681;SDS011;6405;59.208;18.216;2023-03-07T16:52:00;1.77;;;0.70;;
12681;SDS011;6405;59.208;18.216;2023-03-07T16:54:26;2.00;;;0.80;;
12681;SDS011;6405;59.208;18.216;2023-03-07T16:56:52;0.70;;;0.60;;